METAR Data
IDs: Format: Raw Decoded Include TAF

Data at: 1100 UTC 16 Feb 2019

PAFE 161056Z AUTO 35007KT 310V040 10SM CLR M06/M13 A3007 RMK AO2 SLP194 T10561133 FZRANO
PAFE 160956Z AUTO 01008G14KT 10SM CLR M05/M13 A3004 RMK AO2 SLP184 T10501133 FZRANO
PAFE 160856Z AUTO 01007KT 10SM CLR M05/M13 A3001 RMK AO2 SLP175 T10501128 400171050 53024 FZRANO
PAFE 160756Z AUTO 36007KT 290V050 10SM SCT075 M04/M12 A2998 RMK AO2 SLP166 T10441122 FZRANO
PAFE 160656Z AUTO 01008G15KT 340V050 10SM OVC075 M04/M12 A2996 RMK AO2 SLP159 T10391117 FZRANO
PAFE 160556Z AUTO 02008KT 10SM FEW075 M04/M12 A2994 RMK AO2 SLP150 T10391117 10011 21039 51021 FZRANO
PAFE 160356Z AUTO VRB04KT 10SM CLR M04/M11 A2990 RMK AO2 SLP137 T10391106 FZRANO
PAFE 160256Z AUTO 34007KT 290V360 10SM CLR M03/M11 A2987 RMK AO2 SLP129 T10331106 53020 FZRANO
PAFE 160056Z AUTO 31005KT 10SM OVC070 00/M10 A2983 RMK AO2 SLP115 T00001100 FZRANO
PAFE 152356Z AUTO VRB03KT 10SM OVC070 01/M10 A2981 RMK AO2 SLP108 T00061100 10017 21039 51018 FZRANO
PAFE 152256Z AUTO VRB05KT 10SM OVC070 01/M11 A2980 RMK AO2 SLP103 T00111106 FZRANO
PAFE 152156Z AUTO 31008KT 10SM BKN070 01/M11 A2978 RMK AO2 SLP096 T00111106 FZRANO
PAFE 151856Z AUTO 31007KT 280V350 10SM CLR M01/M09 A2973 RMK AO2 SLP080 T10061094 FZRANO
PAFE 151756Z AUTO 31003KT 10SM CLR M04/M09 A2971 RMK AO2 SLP074 T10391089 11017 21050 53018 FZRANO
PAFE 151656Z AUTO 00000KT 10SM CLR M03/M09 A2969 RMK AO2 SLP068 T10331094 FZRANO
PAFE 151556Z AUTO 32003KT 10SM CLR M03/M09 A2968 RMK AO2 SLP061 T10331094 FZRANO
PAFE 151456Z AUTO 33004KT 10SM BKN120 M02/M09 A2966 RMK AO2 SLP056 T10221089 53013 FZRANO
PAFE 151356Z AUTO VRB05KT 10SM FEW100 M02/M09 A2964 RMK AO2 SLP050 T10221089 FZRANO
PAFE 151256Z AUTO VRB05KT 10SM OVC100 M02/M08 A2963 RMK AO2 SLP045 T10171083 FZRANO
PAFE 151056Z AUTO 33006KT 10SM SCT120 M01/M08 A2961 RMK AO2 SLP038 T10111083 FZRANO
PAFE 150956Z AUTO 34003KT 10SM SCT110 M01/M08 A2961 RMK AO2 SLP037 T10111083 FZRANO
PAFE 150856Z AUTO 35008KT 320V020 10SM OVC110 M01/M08 A2958 RMK AO2 SLP029 T10061083 400171011 53007 FZRANO
PAFE 150756Z AUTO 31007G14KT 270V360 10SM FEW100 M01/M08 A2957 RMK AO2 SLP026 T10061078 FZRANO
PAFE 150656Z AUTO VRB04KT 10SM FEW120 M01/M07 A2957 RMK AO2 SLP024 T10061072 FZRANO
PAFE 150556Z AUTO 33006KT 10SM CLR 00/M07 A2956 RMK AO2 SLP022 T00001072 10011 21006 58000 FZRANO
PAFE 150456Z AUTO VRB05KT 10SM SCT110 00/M07 A2956 RMK AO2 SLP022 T00001072 FZRANO
PAFE 150356Z AUTO VRB06KT 10SM CLR 00/M07 A2957 RMK AO2 SLP026 T00001072 FZRANO
PAFE 150256Z AUTO VRB05KT 10SM CLR 00/M07 A2956 RMK AO2 SLP022 T00001067 53007 FZRANO
PAFE 150156Z AUTO 33005KT 10SM SCT110 00/M08 A2955 RMK AO2 SLP020 T00001078 FZRANO
PAFE 150056Z AUTO 33007KT 290V020 10SM CLR 01/M07 A2954 RMK AO2 SLP017 T00061072 FZRANO
PAFE 142356Z AUTO VRB05KT 10SM CLR 01/M06 A2954 RMK AO2 SLP015 60001 T00111061 10017 21006 55008 FZRANO